CSN9531 ZBTJ-ZSPD
Flight info
| Callsign | CSN9531 |
|---|---|
| Flight time | 1h 45m |
| Altitude | 37100 |
| Route | ELKUR W40 YQG W142 DALIM A593 DPX A470 DALNU W166 ZJ W167 SASAN |
| Aircraft | A20N/M-SDE2E3FGHIRWXY/LB1 |
Departure
| Time | 2026-04-16 12:59 |
|---|---|
| Airport | Tianjin Binhai International Airport (ZBTJ) |
Arrival
| Time | 2026-04-16 14:45 |
|---|---|
| Airport | Shanghai Pudong International Airport (ZSPD) |
| Time | Latitude | Longitude | Altitude | Speed | Heading |
|---|---|---|---|---|---|
| 2026-04-16 12:37 | 39.12712 | 117.35171 | 22 ft | 0 kts | 93° |
| 2026-04-16 12:48 | 39.12713 | 117.35158 | -5 ft | 2 kts | 93° |
| 2026-04-16 12:49 | 39.12714 | 117.35137 | 38 ft | 2 kts | 93° |
| 2026-04-16 12:49 | 39.12715 | 117.35116 | 22 ft | 2 kts | 93° |
| 2026-04-16 12:49 | 39.12716 | 117.35095 | 22 ft | 2 kts | 93° |
| 2026-04-16 12:49 | 39.12719 | 117.35075 | 23 ft | 2 kts | 99° |
| 2026-04-16 12:50 | 39.12716 | 117.35054 | 24 ft | 2 kts | 51° |
| 2026-04-16 12:50 | 39.12702 | 117.35044 | 26 ft | 2 kts | 13° |
| 2026-04-16 12:50 | 39.12697 | 117.35042 | 26 ft | 0 kts | 5° |
| 2026-04-16 12:52 | 39.12715 | 117.35042 | 24 ft | 5 kts | 355° |
| 2026-04-16 12:52 | 39.12771 | 117.35036 | 22 ft | 11 kts | 340° |
| 2026-04-16 12:53 | 39.12800 | 117.35006 | 22 ft | 3 kts | 289° |
| 2026-04-16 12:53 | 39.12813 | 117.34954 | 22 ft | 9 kts | 287° |
| 2026-04-16 12:53 | 39.12800 | 117.34859 | 24 ft | 11 kts | 244° |
| 2026-04-16 12:53 | 39.12766 | 117.34769 | 22 ft | 11 kts | 245° |
| 2026-04-16 12:54 | 39.12759 | 117.34684 | 23 ft | 9 kts | 307° |
| 2026-04-16 12:54 | 39.12813 | 117.34642 | 22 ft | 9 kts | 335° |
| 2026-04-16 12:54 | 39.12866 | 117.34610 | 22 ft | 8 kts | 335° |
| 2026-04-16 12:54 | 39.12917 | 117.34579 | 22 ft | 8 kts | 334° |
| 2026-04-16 12:55 | 39.12965 | 117.34549 | 23 ft | 8 kts | 335° |
| 2026-04-16 12:55 | 39.13013 | 117.34520 | 22 ft | 7 kts | 335° |
| 2026-04-16 12:55 | 39.13059 | 117.34492 | 24 ft | 7 kts | 335° |
| 2026-04-16 12:55 | 39.13116 | 117.34457 | 22 ft | 12 kts | 334° |
| 2026-04-16 12:56 | 39.13208 | 117.34401 | 23 ft | 17 kts | 335° |
| 2026-04-16 12:56 | 39.13323 | 117.34330 | 23 ft | 19 kts | 334° |
| 2026-04-16 12:56 | 39.13439 | 117.34259 | 22 ft | 18 kts | 334° |
| 2026-04-16 12:56 | 39.13552 | 117.34189 | 22 ft | 18 kts | 334° |
| 2026-04-16 12:57 | 39.13663 | 117.34121 | 22 ft | 17 kts | 334° |
| 2026-04-16 12:57 | 39.13769 | 117.34054 | 23 ft | 16 kts | 328° |
| 2026-04-16 12:57 | 39.13777 | 117.33961 | 23 ft | 10 kts | 246° |
| 2026-04-16 12:57 | 39.13750 | 117.33890 | 24 ft | 8 kts | 244° |
| 2026-04-16 12:58 | 39.13716 | 117.33835 | 24 ft | 7 kts | 192° |
| 2026-04-16 12:58 | 39.13674 | 117.33856 | 23 ft | 0 kts | 154° |
| 2026-04-16 12:58 | 39.13595 | 117.33905 | 23 ft | 41 kts | 154° |
| 2026-04-16 12:58 | 39.13129 | 117.34192 | 21 ft | 106 kts | 154° |
| 2026-04-16 12:59 | 39.12271 | 117.34723 | 27 ft | 165 kts | 154° |
| 2026-04-16 12:59 | 39.11204 | 117.35300 | 609 ft | 162 kts | 160° |
| 2026-04-16 12:59 | 39.10206 | 117.35869 | 1425 ft | 151 kts | 155° |
| 2026-04-16 13:00 | 39.08352 | 117.37086 | 2972 ft | 154 kts | 156° |
| 2026-04-16 13:00 | 39.07339 | 117.37731 | 3506 ft | 175 kts | 156° |
| 2026-04-16 13:00 | 39.06157 | 117.38470 | 3847 ft | 201 kts | 156° |
| 2026-04-16 13:00 | 39.04798 | 117.39311 | 4202 ft | 229 kts | 156° |
| 2026-04-16 13:01 | 39.03348 | 117.40210 | 4945 ft | 237 kts | 156° |
| 2026-04-16 13:01 | 39.01814 | 117.41159 | 5716 ft | 246 kts | 156° |
| 2026-04-16 13:01 | 39.00259 | 117.42120 | 6419 ft | 256 kts | 156° |
| 2026-04-16 13:01 | 38.98654 | 117.43192 | 7127 ft | 264 kts | 147° |
| 2026-04-16 13:02 | 38.97372 | 117.44890 | 7862 ft | 270 kts | 117° |
| 2026-04-16 13:02 | 38.96934 | 117.47216 | 8602 ft | 271 kts | 86° |
| 2026-04-16 13:02 | 38.97124 | 117.49628 | 9419 ft | 272 kts | 78° |
| 2026-04-16 13:02 | 38.97442 | 117.52043 | 10187 ft | 275 kts | 77° |
| 2026-04-16 13:03 | 38.97768 | 117.54447 | 10908 ft | 278 kts | 77° |
| 2026-04-16 13:03 | 38.98092 | 117.56916 | 11660 ft | 281 kts | 78° |
| 2026-04-16 13:03 | 38.98408 | 117.59405 | 12413 ft | 284 kts | 78° |
| 2026-04-16 13:03 | 38.98723 | 117.61935 | 13163 ft | 288 kts | 78° |
| 2026-04-16 13:04 | 38.99013 | 117.64501 | 13895 ft | 292 kts | 83° |
| 2026-04-16 13:04 | 38.98858 | 117.67140 | 14506 ft | 301 kts | 106° |
| 2026-04-16 13:04 | 38.97857 | 117.69470 | 15088 ft | 307 kts | 134° |
| 2026-04-16 13:04 | 38.96106 | 117.70995 | 15693 ft | 306 kts | 163° |
| 2026-04-16 13:05 | 38.94037 | 117.71599 | 16370 ft | 304 kts | 175° |
| 2026-04-16 13:05 | 38.91925 | 117.71893 | 17054 ft | 304 kts | 183° |
| 2026-04-16 13:05 | 38.89856 | 117.71538 | 17709 ft | 298 kts | 204° |
| 2026-04-16 13:05 | 38.88097 | 117.70224 | 18360 ft | 291 kts | 227° |
| 2026-04-16 13:06 | 38.86924 | 117.68166 | 18922 ft | 285 kts | 250° |
| 2026-04-16 13:06 | 38.86395 | 117.65758 | 19512 ft | 284 kts | 261° |
| 2026-04-16 13:06 | 38.86093 | 117.63241 | 20117 ft | 286 kts | 263° |
| 2026-04-16 13:06 | 38.85885 | 117.60694 | 20719 ft | 288 kts | 269° |
| 2026-04-16 13:07 | 38.86024 | 117.58116 | 21300 ft | 290 kts | 281° |
| 2026-04-16 13:07 | 38.86576 | 117.55614 | 21873 ft | 293 kts | 288° |
| 2026-04-16 13:07 | 38.87276 | 117.53141 | 22437 ft | 296 kts | 289° |
| 2026-04-16 13:07 | 38.87993 | 117.50689 | 22982 ft | 298 kts | 289° |
| 2026-04-16 13:08 | 38.88721 | 117.48183 | 23521 ft | 300 kts | 288° |
| 2026-04-16 13:08 | 38.89453 | 117.45645 | 23966 ft | 303 kts | 288° |
| 2026-04-16 13:08 | 38.90184 | 117.43093 | 24387 ft | 306 kts | 288° |
| 2026-04-16 13:08 | 38.90833 | 117.40518 | 24789 ft | 307 kts | 282° |
| 2026-04-16 13:09 | 38.91219 | 117.37813 | 25193 ft | 308 kts | 274° |
| 2026-04-16 13:09 | 38.91258 | 117.35056 | 25601 ft | 309 kts | 265° |
| 2026-04-16 13:09 | 38.90932 | 117.32310 | 25999 ft | 311 kts | 256° |
| 2026-04-16 13:09 | 38.90251 | 117.29676 | 26398 ft | 312 kts | 246° |
| 2026-04-16 13:10 | 38.89301 | 117.27155 | 26798 ft | 314 kts | 243° |
| 2026-04-16 13:10 | 38.88291 | 117.24697 | 27189 ft | 316 kts | 242° |
| 2026-04-16 13:10 | 38.87254 | 117.22199 | 27576 ft | 317 kts | 242° |
| 2026-04-16 13:10 | 38.86215 | 117.19690 | 27941 ft | 319 kts | 242° |
| 2026-04-16 13:11 | 38.85174 | 117.17167 | 28304 ft | 320 kts | 242° |
| 2026-04-16 13:11 | 38.84129 | 117.14630 | 28655 ft | 322 kts | 242° |
| 2026-04-16 13:11 | 38.83092 | 117.12111 | 28993 ft | 323 kts | 242° |
| 2026-04-16 13:11 | 38.82041 | 117.09555 | 29339 ft | 325 kts | 242° |
| 2026-04-16 13:12 | 38.80983 | 117.06984 | 29667 ft | 326 kts | 242° |
| 2026-04-16 13:12 | 38.79918 | 117.04398 | 29984 ft | 328 kts | 242° |
| 2026-04-16 13:12 | 38.78848 | 117.01803 | 30258 ft | 330 kts | 242° |
| 2026-04-16 13:12 | 38.77774 | 116.99197 | 30529 ft | 331 kts | 242° |
| 2026-04-16 13:13 | 38.77061 | 116.97469 | 30709 ft | 332 kts | 242° |
| 2026-04-16 13:13 | 38.75625 | 116.93996 | 31056 ft | 333 kts | 242° |
| 2026-04-16 13:13 | 38.74524 | 116.91370 | 31304 ft | 334 kts | 241° |
| 2026-04-16 13:13 | 38.73413 | 116.88740 | 31545 ft | 336 kts | 241° |
| 2026-04-16 13:14 | 38.72672 | 116.86991 | 31700 ft | 337 kts | 241° |
| 2026-04-16 13:14 | 38.71552 | 116.84347 | 31941 ft | 338 kts | 241° |
| 2026-04-16 13:14 | 38.70426 | 116.81692 | 32173 ft | 339 kts | 242° |
| 2026-04-16 13:14 | 38.69296 | 116.79028 | 32394 ft | 341 kts | 241° |
| 2026-04-16 13:15 | 38.68101 | 116.76391 | 32613 ft | 342 kts | 237° |
| 2026-04-16 13:15 | 38.66723 | 116.73944 | 32824 ft | 344 kts | 231° |
| 2026-04-16 13:15 | 38.65090 | 116.71698 | 33023 ft | 347 kts | 225° |
| 2026-04-16 13:15 | 38.63220 | 116.69720 | 33215 ft | 350 kts | 218° |
| 2026-04-16 13:16 | 38.61139 | 116.68056 | 33398 ft | 355 kts | 211° |
| 2026-04-16 13:16 | 38.58880 | 116.66747 | 33580 ft | 360 kts | 204° |
| 2026-04-16 13:16 | 38.56456 | 116.65819 | 33756 ft | 365 kts | 197° |
| 2026-04-16 13:16 | 38.53932 | 116.65270 | 33922 ft | 370 kts | 193° |
| 2026-04-16 13:17 | 38.51361 | 116.64896 | 34081 ft | 373 kts | 191° |
| 2026-04-16 13:17 | 38.48768 | 116.64605 | 34219 ft | 375 kts | 190° |
| 2026-04-16 13:17 | 38.46155 | 116.64345 | 34370 ft | 376 kts | 190° |
| 2026-04-16 13:17 | 38.43573 | 116.64091 | 34507 ft | 378 kts | 190° |
| 2026-04-16 13:18 | 38.40944 | 116.63823 | 34639 ft | 379 kts | 191° |
| 2026-04-16 13:18 | 38.38314 | 116.63542 | 34773 ft | 380 kts | 191° |
| 2026-04-16 13:18 | 38.35670 | 116.63250 | 34908 ft | 381 kts | 191° |
| 2026-04-16 13:18 | 38.33022 | 116.62957 | 35044 ft | 383 kts | 190° |
| 2026-04-16 13:19 | 38.30333 | 116.62894 | 35160 ft | 389 kts | 184° |
| 2026-04-16 13:19 | 38.27614 | 116.63262 | 35283 ft | 397 kts | 176° |
| 2026-04-16 13:19 | 38.24930 | 116.64030 | 35403 ft | 401 kts | 173° |
| 2026-04-16 13:19 | 38.22226 | 116.64952 | 35529 ft | 404 kts | 171° |
| 2026-04-16 13:20 | 38.19514 | 116.65953 | 35645 ft | 406 kts | 171° |
| 2026-04-16 13:20 | 38.16807 | 116.66985 | 35760 ft | 407 kts | 170° |
| 2026-04-16 13:20 | 38.14083 | 116.68029 | 35878 ft | 408 kts | 170° |
| 2026-04-16 13:20 | 38.11349 | 116.69072 | 35999 ft | 409 kts | 171° |
| 2026-04-16 13:21 | 38.08615 | 116.70119 | 36111 ft | 411 kts | 170° |
| 2026-04-16 13:21 | 38.05879 | 116.71168 | 36221 ft | 412 kts | 171° |
| 2026-04-16 13:21 | 38.03130 | 116.72222 | 36341 ft | 412 kts | 171° |
| 2026-04-16 13:22 | 37.97644 | 116.74312 | 36477 ft | 417 kts | 171° |
| 2026-04-16 13:22 | 37.92050 | 116.76432 | 36583 ft | 422 kts | 171° |
| 2026-04-16 13:23 | 37.86392 | 116.78577 | 36695 ft | 427 kts | 171° |
| 2026-04-16 13:23 | 37.80674 | 116.80744 | 36811 ft | 431 kts | 171° |
| 2026-04-16 13:24 | 37.74890 | 116.82934 | 36924 ft | 436 kts | 171° |
| 2026-04-16 13:24 | 37.69039 | 116.85146 | 37037 ft | 440 kts | 171° |
| 2026-04-16 13:25 | 37.63164 | 116.87362 | 37096 ft | 446 kts | 171° |
| 2026-04-16 13:25 | 37.57191 | 116.89613 | 37093 ft | 448 kts | 171° |
| 2026-04-16 13:26 | 37.51212 | 116.91867 | 37094 ft | 447 kts | 171° |
| 2026-04-16 13:26 | 37.45303 | 116.94090 | 37400 ft | 443 kts | 171° |
| 2026-04-16 13:27 | 37.39366 | 116.96314 | 36959 ft | 445 kts | 171° |
| 2026-04-16 13:27 | 37.36388 | 116.97426 | 36858 ft | 447 kts | 171° |
| 2026-04-16 13:27 | 37.33406 | 116.98540 | 37034 ft | 447 kts | 171° |
| 2026-04-16 13:28 | 37.27455 | 117.00880 | 37095 ft | 449 kts | 168° |
| 2026-04-16 13:28 | 37.21593 | 117.03608 | 37097 ft | 449 kts | 167° |
| 2026-04-16 13:29 | 37.15788 | 117.06401 | 37095 ft | 449 kts | 167° |
| 2026-04-16 13:29 | 37.09938 | 117.09174 | 37093 ft | 449 kts | 168° |
| 2026-04-16 13:30 | 37.04083 | 117.11911 | 37095 ft | 448 kts | 168° |
| 2026-04-16 13:30 | 36.98226 | 117.14634 | 37092 ft | 448 kts | 168° |
| 2026-04-16 13:31 | 36.92406 | 117.17335 | 37090 ft | 448 kts | 168° |
| 2026-04-16 13:31 | 36.86548 | 117.20038 | 37090 ft | 447 kts | 171° |
| 2026-04-16 13:32 | 36.80596 | 117.21467 | 37101 ft | 427 kts | 186° |
| 2026-04-16 13:32 | 36.74674 | 117.21640 | 37329 ft | 423 kts | 189° |
| 2026-04-16 13:32 | 36.71772 | 117.21616 | 37498 ft | 422 kts | 189° |
| 2026-04-16 13:33 | 36.68835 | 117.21570 | 37649 ft | 421 kts | 189° |
| 2026-04-16 13:33 | 36.65904 | 117.21521 | 37799 ft | 421 kts | 189° |
| 2026-04-16 13:33 | 36.62969 | 117.21478 | 37938 ft | 421 kts | 189° |
| 2026-04-16 13:34 | 36.57083 | 117.21412 | 38006 ft | 424 kts | 189° |
| 2026-04-16 13:34 | 36.51178 | 117.21369 | 38004 ft | 423 kts | 189° |
| 2026-04-16 13:35 | 36.45317 | 117.21333 | 37701 ft | 423 kts | 188° |
| 2026-04-16 13:35 | 36.42345 | 117.21558 | 37431 ft | 432 kts | 181° |
| 2026-04-16 13:35 | 36.39358 | 117.22285 | 37178 ft | 440 kts | 176° |
| 2026-04-16 13:36 | 36.33405 | 117.24318 | 37108 ft | 445 kts | 173° |
| 2026-04-16 13:36 | 36.27482 | 117.26557 | 37111 ft | 446 kts | 173° |
| 2026-04-16 13:37 | 36.21542 | 117.28812 | 37110 ft | 446 kts | 173° |
| 2026-04-16 13:37 | 36.15594 | 117.31036 | 37113 ft | 446 kts | 173° |
| 2026-04-16 13:38 | 36.09687 | 117.33223 | 37109 ft | 446 kts | 173° |
| 2026-04-16 13:38 | 36.03737 | 117.35420 | 37109 ft | 445 kts | 173° |
| 2026-04-16 13:39 | 35.97788 | 117.37622 | 37110 ft | 445 kts | 173° |
| 2026-04-16 13:39 | 35.91886 | 117.39830 | 37111 ft | 445 kts | 173° |
| 2026-04-16 13:40 | 35.85950 | 117.42055 | 37112 ft | 445 kts | 173° |
| 2026-04-16 13:40 | 35.80018 | 117.44274 | 37120 ft | 445 kts | 173° |
| 2026-04-16 13:41 | 35.74090 | 117.46485 | 37116 ft | 445 kts | 173° |
| 2026-04-16 13:41 | 35.68197 | 117.48679 | 37109 ft | 444 kts | 173° |
| 2026-04-16 13:42 | 35.62467 | 117.50811 | 37120 ft | 444 kts | 173° |
| 2026-04-16 13:42 | 35.56553 | 117.53006 | 37120 ft | 443 kts | 173° |
| 2026-04-16 13:43 | 35.50632 | 117.55200 | 37118 ft | 443 kts | 173° |
| 2026-04-16 13:43 | 35.44748 | 117.57378 | 37116 ft | 443 kts | 173° |
| 2026-04-16 13:44 | 35.38865 | 117.59551 | 37121 ft | 443 kts | 173° |
| 2026-04-16 13:44 | 35.32951 | 117.61733 | 37119 ft | 443 kts | 173° |
| 2026-04-16 13:45 | 35.27045 | 117.63909 | 37119 ft | 443 kts | 173° |
| 2026-04-16 13:45 | 35.21142 | 117.66080 | 37120 ft | 443 kts | 173° |
| 2026-04-16 13:46 | 35.15256 | 117.68242 | 37122 ft | 443 kts | 173° |
| 2026-04-16 13:46 | 35.09374 | 117.70399 | 37121 ft | 443 kts | 173° |
| 2026-04-16 13:47 | 35.03456 | 117.72568 | 37116 ft | 443 kts | 173° |
| 2026-04-16 13:47 | 34.97550 | 117.74731 | 37118 ft | 442 kts | 173° |
| 2026-04-16 13:48 | 34.91685 | 117.76876 | 37119 ft | 443 kts | 173° |
| 2026-04-16 13:48 | 34.85766 | 117.79037 | 37114 ft | 443 kts | 173° |
| 2026-04-16 13:49 | 34.79842 | 117.81201 | 37117 ft | 444 kts | 173° |
| 2026-04-16 13:49 | 34.73916 | 117.83339 | 37111 ft | 444 kts | 173° |
| 2026-04-16 13:50 | 34.67982 | 117.85471 | 37113 ft | 444 kts | 174° |
| 2026-04-16 13:50 | 34.62078 | 117.87589 | 37112 ft | 445 kts | 174° |
| 2026-04-16 13:51 | 34.56121 | 117.89725 | 37110 ft | 445 kts | 174° |
| 2026-04-16 13:51 | 34.50201 | 117.91846 | 37108 ft | 446 kts | 174° |
| 2026-04-16 13:52 | 34.44247 | 117.93975 | 37105 ft | 446 kts | 174° |
| 2026-04-16 13:52 | 34.38285 | 117.96105 | 37103 ft | 446 kts | 174° |
| 2026-04-16 13:53 | 34.32324 | 117.98231 | 37105 ft | 447 kts | 174° |
| 2026-04-16 13:53 | 34.26362 | 118.00361 | 37104 ft | 447 kts | 173° |
| 2026-04-16 13:54 | 34.20399 | 118.02529 | 37102 ft | 447 kts | 173° |
| 2026-04-16 13:54 | 34.14442 | 118.04704 | 37100 ft | 447 kts | 173° |
| 2026-04-16 13:55 | 34.08486 | 118.06873 | 37102 ft | 447 kts | 173° |
| 2026-04-16 13:55 | 34.02568 | 118.09023 | 37097 ft | 446 kts | 173° |
| 2026-04-16 13:56 | 33.96610 | 118.11187 | 37101 ft | 446 kts | 173° |
| 2026-04-16 13:56 | 33.90659 | 118.13354 | 37103 ft | 446 kts | 173° |
| 2026-04-16 13:57 | 33.84762 | 118.15502 | 37093 ft | 446 kts | 172° |
| 2026-04-16 13:57 | 33.81833 | 118.16848 | 37095 ft | 457 kts | 165° |
| 2026-04-16 13:57 | 33.79019 | 118.18719 | 37101 ft | 466 kts | 158° |
| 2026-04-16 13:58 | 33.70877 | 118.25282 | 37095 ft | 471 kts | 155° |
| 2026-04-16 13:58 | 33.65511 | 118.29815 | 37093 ft | 471 kts | 155° |
| 2026-04-16 13:59 | 33.60146 | 118.34311 | 37093 ft | 470 kts | 155° |
| 2026-04-16 13:59 | 33.54797 | 118.38751 | 37095 ft | 470 kts | 155° |
| 2026-04-16 14:00 | 33.49408 | 118.43205 | 37091 ft | 470 kts | 155° |
| 2026-04-16 14:00 | 33.44930 | 118.46901 | 37094 ft | 469 kts | 156° |
| 2026-04-16 14:01 | 33.38634 | 118.52090 | 37092 ft | 469 kts | 156° |
| 2026-04-16 14:01 | 33.33287 | 118.56491 | 37089 ft | 469 kts | 156° |
| 2026-04-16 14:02 | 33.28777 | 118.60198 | 37087 ft | 469 kts | 156° |
| 2026-04-16 14:02 | 33.23429 | 118.64587 | 37093 ft | 469 kts | 156° |
| 2026-04-16 14:03 | 33.18037 | 118.69029 | 37085 ft | 470 kts | 156° |
| 2026-04-16 14:03 | 33.12660 | 118.73496 | 37090 ft | 471 kts | 156° |
| 2026-04-16 14:04 | 33.07284 | 118.77962 | 37084 ft | 471 kts | 156° |
| 2026-04-16 14:04 | 33.01932 | 118.82397 | 37081 ft | 471 kts | 156° |
| 2026-04-16 14:05 | 32.96548 | 118.86848 | 37087 ft | 471 kts | 156° |
| 2026-04-16 14:05 | 32.91154 | 118.91300 | 37088 ft | 472 kts | 156° |
| 2026-04-16 14:06 | 32.85751 | 118.95754 | 37080 ft | 472 kts | 156° |
| 2026-04-16 14:06 | 32.80353 | 119.00225 | 37080 ft | 472 kts | 156° |
| 2026-04-16 14:07 | 32.74993 | 119.04679 | 37082 ft | 472 kts | 156° |
| 2026-04-16 14:07 | 32.69600 | 119.09154 | 37077 ft | 472 kts | 156° |
| 2026-04-16 14:08 | 32.64209 | 119.13618 | 36905 ft | 472 kts | 157° |
| 2026-04-16 14:08 | 32.61514 | 119.15847 | 36640 ft | 471 kts | 156° |
| 2026-04-16 14:08 | 32.58819 | 119.18073 | 36384 ft | 472 kts | 156° |
| 2026-04-16 14:09 | 32.56124 | 119.20298 | 36135 ft | 472 kts | 156° |
| 2026-04-16 14:09 | 32.53458 | 119.22496 | 35886 ft | 472 kts | 156° |
| 2026-04-16 14:09 | 32.50756 | 119.24722 | 35642 ft | 472 kts | 156° |
| 2026-04-16 14:09 | 32.48054 | 119.26948 | 35397 ft | 473 kts | 156° |
| 2026-04-16 14:10 | 32.45357 | 119.29168 | 35156 ft | 473 kts | 156° |
| 2026-04-16 14:10 | 32.42645 | 119.31397 | 34917 ft | 473 kts | 156° |
| 2026-04-16 14:10 | 32.39939 | 119.33621 | 34680 ft | 474 kts | 156° |
| 2026-04-16 14:10 | 32.37231 | 119.35845 | 34444 ft | 474 kts | 156° |
| 2026-04-16 14:11 | 32.34517 | 119.38072 | 34215 ft | 474 kts | 156° |
| 2026-04-16 14:11 | 32.31803 | 119.40297 | 33982 ft | 475 kts | 156° |
| 2026-04-16 14:11 | 32.29084 | 119.42525 | 33721 ft | 475 kts | 156° |
| 2026-04-16 14:11 | 32.26393 | 119.44728 | 33458 ft | 476 kts | 156° |
| 2026-04-16 14:12 | 32.23673 | 119.46952 | 33192 ft | 476 kts | 156° |
| 2026-04-16 14:12 | 32.20950 | 119.49179 | 32938 ft | 477 kts | 156° |
| 2026-04-16 14:12 | 32.18216 | 119.51412 | 32676 ft | 477 kts | 156° |
| 2026-04-16 14:12 | 32.15481 | 119.53643 | 32416 ft | 478 kts | 156° |
| 2026-04-16 14:13 | 32.12742 | 119.55878 | 32163 ft | 478 kts | 155° |
| 2026-04-16 14:13 | 32.09995 | 119.58117 | 31913 ft | 479 kts | 155° |
| 2026-04-16 14:13 | 32.07286 | 119.60324 | 31668 ft | 479 kts | 155° |
| 2026-04-16 14:13 | 32.04541 | 119.62559 | 31419 ft | 480 kts | 155° |
| 2026-04-16 14:14 | 32.01790 | 119.64796 | 31178 ft | 480 kts | 155° |
| 2026-04-16 14:14 | 31.99037 | 119.67034 | 30942 ft | 481 kts | 155° |
| 2026-04-16 14:14 | 31.96277 | 119.69293 | 30697 ft | 484 kts | 152° |
| 2026-04-16 14:14 | 31.93797 | 119.72065 | 30455 ft | 502 kts | 137° |
| 2026-04-16 14:15 | 31.91685 | 119.75382 | 30230 ft | 508 kts | 133° |
| 2026-04-16 14:15 | 31.89672 | 119.78812 | 29987 ft | 510 kts | 131° |
| 2026-04-16 14:15 | 31.87674 | 119.82279 | 29712 ft | 511 kts | 131° |
| 2026-04-16 14:15 | 31.85709 | 119.85697 | 29446 ft | 511 kts | 131° |
| 2026-04-16 14:16 | 31.83717 | 119.89161 | 29172 ft | 512 kts | 131° |
| 2026-04-16 14:16 | 31.81718 | 119.92631 | 28902 ft | 512 kts | 131° |
| 2026-04-16 14:16 | 31.79716 | 119.96103 | 28633 ft | 513 kts | 130° |
| 2026-04-16 14:16 | 31.77709 | 119.99581 | 28378 ft | 513 kts | 130° |
| 2026-04-16 14:17 | 31.75707 | 120.03045 | 28120 ft | 514 kts | 130° |
| 2026-04-16 14:17 | 31.73696 | 120.06522 | 27857 ft | 514 kts | 130° |
| 2026-04-16 14:17 | 31.71677 | 120.10010 | 27602 ft | 515 kts | 130° |
| 2026-04-16 14:17 | 31.69662 | 120.13487 | 27348 ft | 515 kts | 130° |
| 2026-04-16 14:18 | 31.67646 | 120.16964 | 27099 ft | 515 kts | 130° |
| 2026-04-16 14:18 | 31.65625 | 120.20445 | 26850 ft | 516 kts | 130° |
| 2026-04-16 14:18 | 31.63604 | 120.23924 | 26602 ft | 516 kts | 130° |
| 2026-04-16 14:18 | 31.61573 | 120.27416 | 26358 ft | 517 kts | 130° |
| 2026-04-16 14:19 | 31.59589 | 120.30946 | 26109 ft | 521 kts | 125° |
| 2026-04-16 14:19 | 31.58069 | 120.34838 | 25873 ft | 528 kts | 115° |
| 2026-04-16 14:19 | 31.56830 | 120.38900 | 25637 ft | 530 kts | 112° |
| 2026-04-16 14:19 | 31.55642 | 120.42988 | 25398 ft | 528 kts | 112° |
| 2026-04-16 14:20 | 31.54473 | 120.47012 | 25169 ft | 527 kts | 112° |
| 2026-04-16 14:20 | 31.53287 | 120.51067 | 24937 ft | 525 kts | 112° |
| 2026-04-16 14:20 | 31.52100 | 120.55105 | 24705 ft | 523 kts | 112° |
| 2026-04-16 14:20 | 31.50915 | 120.59120 | 24222 ft | 517 kts | 112° |
| 2026-04-16 14:21 | 31.49732 | 120.63116 | 23281 ft | 519 kts | 112° |
| 2026-04-16 14:21 | 31.48546 | 120.67107 | 22245 ft | 519 kts | 111° |
| 2026-04-16 14:21 | 31.47370 | 120.71066 | 21282 ft | 507 kts | 111° |
| 2026-04-16 14:21 | 31.46227 | 120.74910 | 20349 ft | 493 kts | 111° |
| 2026-04-16 14:22 | 31.45109 | 120.78655 | 19437 ft | 479 kts | 111° |
| 2026-04-16 14:22 | 31.44013 | 120.82231 | 18559 ft | 467 kts | 111° |
| 2026-04-16 14:22 | 31.42916 | 120.85760 | 17603 ft | 455 kts | 111° |
| 2026-04-16 14:22 | 31.41844 | 120.89203 | 16711 ft | 442 kts | 111° |
| 2026-04-16 14:23 | 31.40802 | 120.92530 | 15825 ft | 431 kts | 112° |
| 2026-04-16 14:23 | 31.39451 | 120.95616 | 15448 ft | 426 kts | 126° |
| 2026-04-16 14:23 | 31.37672 | 120.98394 | 15341 ft | 427 kts | 131° |
| 2026-04-16 14:23 | 31.35790 | 121.01088 | 15152 ft | 425 kts | 131° |
| 2026-04-16 14:24 | 31.33903 | 121.03747 | 14952 ft | 423 kts | 132° |
| 2026-04-16 14:24 | 31.32021 | 121.06398 | 14755 ft | 422 kts | 131° |
| 2026-04-16 14:24 | 31.30153 | 121.09033 | 14552 ft | 420 kts | 131° |
| 2026-04-16 14:24 | 31.28312 | 121.11631 | 14365 ft | 419 kts | 131° |
| 2026-04-16 14:25 | 31.26457 | 121.14251 | 14166 ft | 417 kts | 131° |
| 2026-04-16 14:25 | 31.24608 | 121.16862 | 13972 ft | 416 kts | 131° |
| 2026-04-16 14:25 | 31.22768 | 121.19459 | 13773 ft | 414 kts | 131° |
| 2026-04-16 14:25 | 31.20929 | 121.22053 | 13559 ft | 413 kts | 131° |
| 2026-04-16 14:26 | 31.19099 | 121.24634 | 13375 ft | 412 kts | 131° |
| 2026-04-16 14:26 | 31.17299 | 121.27170 | 13182 ft | 410 kts | 131° |
| 2026-04-16 14:26 | 31.15473 | 121.29741 | 12987 ft | 409 kts | 131° |
| 2026-04-16 14:26 | 31.13673 | 121.32306 | 12820 ft | 403 kts | 129° |
| 2026-04-16 14:27 | 31.12259 | 121.35056 | 12608 ft | 388 kts | 114° |
| 2026-04-16 14:27 | 31.11417 | 121.37991 | 12380 ft | 375 kts | 107° |
| 2026-04-16 14:27 | 31.10754 | 121.40854 | 12153 ft | 362 kts | 105° |
| 2026-04-16 14:27 | 31.10120 | 121.43686 | 11777 ft | 354 kts | 105° |
| 2026-04-16 14:28 | 31.09509 | 121.46406 | 11426 ft | 347 kts | 105° |
| 2026-04-16 14:28 | 31.08899 | 121.49093 | 11133 ft | 338 kts | 106° |
| 2026-04-16 14:28 | 31.08300 | 121.51716 | 10856 ft | 330 kts | 106° |
| 2026-04-16 14:28 | 31.07715 | 121.54270 | 10591 ft | 321 kts | 106° |
| 2026-04-16 14:29 | 31.07143 | 121.56757 | 10342 ft | 314 kts | 106° |
| 2026-04-16 14:29 | 31.06584 | 121.59183 | 10084 ft | 307 kts | 106° |
| 2026-04-16 14:29 | 31.06037 | 121.61551 | 9911 ft | 297 kts | 106° |
| 2026-04-16 14:29 | 31.05510 | 121.63834 | 9757 ft | 286 kts | 106° |
| 2026-04-16 14:30 | 31.05002 | 121.66033 | 9591 ft | 274 kts | 106° |
| 2026-04-16 14:30 | 31.04484 | 121.68127 | 9287 ft | 265 kts | 111° |
| 2026-04-16 14:30 | 31.03629 | 121.69974 | 8952 ft | 260 kts | 132° |
| 2026-04-16 14:30 | 31.02271 | 121.71316 | 8638 ft | 252 kts | 155° |
| 2026-04-16 14:31 | 31.00673 | 121.72098 | 8441 ft | 248 kts | 163° |
| 2026-04-16 14:31 | 30.99034 | 121.72724 | 8245 ft | 247 kts | 165° |
| 2026-04-16 14:31 | 30.97396 | 121.73325 | 8045 ft | 247 kts | 165° |
| 2026-04-16 14:31 | 30.95760 | 121.73929 | 7850 ft | 246 kts | 165° |
| 2026-04-16 14:32 | 30.94150 | 121.74527 | 7652 ft | 245 kts | 165° |
| 2026-04-16 14:32 | 30.92529 | 121.75133 | 7446 ft | 244 kts | 165° |
| 2026-04-16 14:32 | 30.90916 | 121.75739 | 7303 ft | 243 kts | 165° |
| 2026-04-16 14:32 | 30.89303 | 121.76346 | 7116 ft | 243 kts | 165° |
| 2026-04-16 14:33 | 30.87700 | 121.76950 | 6918 ft | 241 kts | 165° |
| 2026-04-16 14:33 | 30.86103 | 121.77552 | 6734 ft | 238 kts | 165° |
| 2026-04-16 14:33 | 30.84560 | 121.78137 | 6555 ft | 228 kts | 165° |
| 2026-04-16 14:33 | 30.83090 | 121.78693 | 6343 ft | 220 kts | 165° |
| 2026-04-16 14:34 | 30.81661 | 121.79233 | 6151 ft | 212 kts | 165° |
| 2026-04-16 14:34 | 30.80259 | 121.79759 | 5989 ft | 212 kts | 165° |
| 2026-04-16 14:34 | 30.78858 | 121.80282 | 5818 ft | 211 kts | 165° |
| 2026-04-16 14:34 | 30.77463 | 121.80803 | 5649 ft | 210 kts | 165° |
| 2026-04-16 14:35 | 30.76091 | 121.81389 | 5435 ft | 210 kts | 156° |
| 2026-04-16 14:35 | 30.74932 | 121.82421 | 5303 ft | 213 kts | 132° |
| 2026-04-16 14:35 | 30.74274 | 121.83959 | 5144 ft | 216 kts | 104° |
| 2026-04-16 14:35 | 30.74317 | 121.85702 | 4968 ft | 219 kts | 75° |
| 2026-04-16 14:36 | 30.75066 | 121.87226 | 4791 ft | 219 kts | 45° |
| 2026-04-16 14:36 | 30.76337 | 121.88164 | 4615 ft | 218 kts | 16° |
| 2026-04-16 14:36 | 30.77826 | 121.88316 | 4443 ft | 215 kts | 349° |
| 2026-04-16 14:36 | 30.79277 | 121.87929 | 4272 ft | 214 kts | 341° |
| 2026-04-16 14:37 | 30.80699 | 121.87428 | 4107 ft | 210 kts | 340° |
| 2026-04-16 14:37 | 30.82065 | 121.86939 | 3912 ft | 201 kts | 341° |
| 2026-04-16 14:37 | 30.83369 | 121.86479 | 3754 ft | 191 kts | 341° |
| 2026-04-16 14:37 | 30.84645 | 121.86140 | 3552 ft | 184 kts | 354° |
| 2026-04-16 14:38 | 30.85878 | 121.86217 | 3383 ft | 171 kts | 9° |
| 2026-04-16 14:38 | 30.87022 | 121.86499 | 3226 ft | 168 kts | 13° |
| 2026-04-16 14:38 | 30.88147 | 121.86819 | 3097 ft | 168 kts | 14° |
| 2026-04-16 14:38 | 30.89288 | 121.87150 | 3010 ft | 168 kts | 15° |
| 2026-04-16 14:39 | 30.90442 | 121.87382 | 3005 ft | 168 kts | 2° |
| 2026-04-16 14:39 | 30.91606 | 121.87271 | 3001 ft | 168 kts | 347° |
| 2026-04-16 14:39 | 30.92731 | 121.86916 | 3002 ft | 167 kts | 341° |
| 2026-04-16 14:39 | 30.93840 | 121.86499 | 3000 ft | 167 kts | 340° |
| 2026-04-16 14:40 | 30.94947 | 121.86077 | 3000 ft | 168 kts | 341° |
| 2026-04-16 14:40 | 30.96048 | 121.85665 | 3000 ft | 169 kts | 341° |
| 2026-04-16 14:40 | 30.97167 | 121.85249 | 3002 ft | 168 kts | 341° |
| 2026-04-16 14:40 | 30.98282 | 121.84835 | 2977 ft | 168 kts | 341° |
| 2026-04-16 14:41 | 30.99396 | 121.84417 | 2799 ft | 168 kts | 342° |
| 2026-04-16 14:41 | 31.00509 | 121.83996 | 2559 ft | 168 kts | 342° |
| 2026-04-16 14:41 | 31.01617 | 121.83576 | 2322 ft | 167 kts | 342° |
| 2026-04-16 14:41 | 31.02709 | 121.83163 | 2099 ft | 166 kts | 343° |
| 2026-04-16 14:42 | 31.03798 | 121.82751 | 1907 ft | 160 kts | 343° |
| 2026-04-16 14:42 | 31.04824 | 121.82363 | 1659 ft | 151 kts | 344° |
| 2026-04-16 14:42 | 31.05814 | 121.81989 | 1455 ft | 148 kts | 344° |
| 2026-04-16 14:42 | 31.06793 | 121.81619 | 1261 ft | 148 kts | 344° |
| 2026-04-16 14:43 | 31.07771 | 121.81249 | 1065 ft | 147 kts | 345° |
| 2026-04-16 14:43 | 31.08737 | 121.80883 | 856 ft | 145 kts | 346° |
| 2026-04-16 14:43 | 31.09689 | 121.80523 | 671 ft | 143 kts | 345° |
| 2026-04-16 14:43 | 31.10629 | 121.80167 | 478 ft | 141 kts | 344° |
| 2026-04-16 14:44 | 31.11567 | 121.79812 | 298 ft | 142 kts | 344° |
| 2026-04-16 14:44 | 31.12498 | 121.79460 | 118 ft | 140 kts | 343° |
| 2026-04-16 14:44 | 31.13401 | 121.79127 | 27 ft | 124 kts | 343° |
| 2026-04-16 14:44 | 31.14045 | 121.78884 | 23 ft | 72 kts | 342° |
| 2026-04-16 14:45 | 31.14346 | 121.78774 | 25 ft | 30 kts | 343° |
| 2026-04-16 14:45 | 31.14549 | 121.78748 | 26 ft | 30 kts | 9° |
| 2026-04-16 14:45 | 31.14710 | 121.78793 | 26 ft | 20 kts | 43° |
| 2026-04-16 14:45 | 31.14760 | 121.78927 | 27 ft | 15 kts | 72° |
| 2026-04-16 14:46 | 31.14793 | 121.79047 | 28 ft | 16 kts | 72° |
| 2026-04-16 14:46 | 31.14827 | 121.79171 | 28 ft | 16 kts | 72° |
| 2026-04-16 14:46 | 31.14861 | 121.79294 | 26 ft | 7 kts | 72° |
| 2026-04-16 14:46 | 31.14877 | 121.79352 | 28 ft | 8 kts | 72° |
| 2026-04-16 14:47 | 31.14894 | 121.79413 | 27 ft | 8 kts | 72° |
| 2026-04-16 14:47 | 31.14912 | 121.79477 | 29 ft | 8 kts | 72° |
| 2026-04-16 14:47 | 31.14930 | 121.79541 | 27 ft | 9 kts | 72° |
| 2026-04-16 14:47 | 31.14961 | 121.79595 | 26 ft | 8 kts | 38° |
| 2026-04-16 14:48 | 31.14989 | 121.79645 | 29 ft | 7 kts | 74° |
| 2026-04-16 14:48 | 31.15004 | 121.79698 | 26 ft | 7 kts | 72° |
| 2026-04-16 14:48 | 31.15007 | 121.79711 | 26 ft | 0 kts | 72° |
| 2026-04-16 14:48 | 31.15008 | 121.79715 | 26 ft | 0 kts | 72° |